sensor_id;sensor_type;location;lat;lon;timestamp;pressure;altitude;pressure_sealevel;temperature;humidity
4705;BME280;2366;51.332;6.610;2023-08-07T00:02:00;101024.13;;;17.63;70.61
4705;BME280;2366;51.332;6.610;2023-08-07T00:04:26;101032.00;;;17.65;71.50
4705;BME280;2366;51.332;6.610;2023-08-07T00:06:51;101028.56;;;17.74;71.04
4705;BME280;2366;51.332;6.610;2023-08-07T00:09:16;101029.09;;;17.78;71.12
4705;BME280;2366;51.332;6.610;2023-08-07T00:11:42;101035.94;;;17.82;71.02
4705;BME280;2366;51.332;6.610;2023-08-07T00:14:07;101039.09;;;17.87;71.00
4705;BME280;2366;51.332;6.610;2023-08-07T00:16:33;101033.97;;;17.84;70.69
4705;BME280;2366;51.332;6.610;2023-08-07T00:18:58;101038.88;;;17.79;70.80
4705;BME280;2366;51.332;6.610;2023-08-07T00:21:23;101037.66;;;17.83;70.65
4705;BME280;2366;51.332;6.610;2023-08-07T00:23:49;101031.78;;;17.78;70.84
4705;BME280;2366;51.332;6.610;2023-08-07T00:26:16;101040.19;;;17.84;70.75
4705;BME280;2366;51.332;6.610;2023-08-07T00:28:41;101043.09;;;17.81;70.45
4705;BME280;2366;51.332;6.610;2023-08-07T00:31:07;101037.88;;;17.80;70.43
4705;BME280;2366;51.332;6.610;2023-08-07T00:33:32;101041.31;;;17.82;69.34
4705;BME280;2366;51.332;6.610;2023-08-07T00:35:57;101044.69;;;17.84;70.20
4705;BME280;2366;51.332;6.610;2023-08-07T00:38:23;101045.69;;;17.83;70.17
4705;BME280;2366;51.332;6.610;2023-08-07T00:40:48;101037.31;;;17.76;70.23
4705;BME280;2366;51.332;6.610;2023-08-07T00:43:14;101040.34;;;17.83;70.22
4705;BME280;2366;51.332;6.610;2023-08-07T00:45:43;101051.50;;;17.88;69.95
4705;BME280;2366;51.332;6.610;2023-08-07T00:48:11;101044.69;;;17.84;69.53
4705;BME280;2366;51.332;6.610;2023-08-07T00:50:36;101058.69;;;17.66;70.23
4705;BME280;2366;51.332;6.610;2023-08-07T00:53:02;101053.31;;;17.66;70.53
4705;BME280;2366;51.332;6.610;2023-08-07T00:55:28;101044.84;;;17.61;70.74
4705;BME280;2366;51.332;6.610;2023-08-07T00:57:54;101062.81;;;17.71;70.46
4705;BME280;2366;51.332;6.610;2023-08-07T01:00:19;101056.72;;;17.69;70.66
4705;BME280;2366;51.332;6.610;2023-08-07T01:02:46;101054.25;;;17.77;70.42
4705;BME280;2366;51.332;6.610;2023-08-07T01:05:14;101053.66;;;17.73;70.37
4705;BME280;2366;51.332;6.610;2023-08-07T01:07:39;101052.03;;;17.82;70.06
4705;BME280;2366;51.332;6.610;2023-08-07T01:10:05;101054.25;;;17.77;70.13
4705;BME280;2366;51.332;6.610;2023-08-07T01:12:36;101057.53;;;17.80;70.06
4705;BME280;2366;51.332;6.610;2023-08-07T01:15:13;101059.72;;;17.75;69.90
4705;BME280;2366;51.332;6.610;2023-08-07T01:17:39;101059.59;;;17.77;69.99
4705;BME280;2366;51.332;6.610;2023-08-07T01:20:06;101057.63;;;17.79;69.79
4705;BME280;2366;51.332;6.610;2023-08-07T01:22:32;101054.97;;;17.79;69.71
4705;BME280;2366;51.332;6.610;2023-08-07T01:24:57;101060.13;;;17.71;69.75
4705;BME280;2366;51.332;6.610;2023-08-07T01:33:04;101069.09;;;17.81;69.46
4705;BME280;2366;51.332;6.610;2023-08-07T01:35:33;101060.13;;;17.71;69.69
4705;BME280;2366;51.332;6.610;2023-08-07T01:38:00;101064.97;;;17.77;69.73
4705;BME280;2366;51.332;6.610;2023-08-07T01:40:28;101069.16;;;17.70;69.72
4705;BME280;2366;51.332;6.610;2023-08-07T01:42:54;101061.38;;;17.66;70.04
4705;BME280;2366;51.332;6.610;2023-08-07T01:45:26;101057.84;;;17.66;69.92
4705;BME280;2366;51.332;6.610;2023-08-07T01:47:52;101065.44;;;17.61;70.66
4705;BME280;2366;51.332;6.610;2023-08-07T01:50:19;101060.94;;;17.61;71.04
4705;BME280;2366;51.332;6.610;2023-08-07T01:52:45;101066.72;;;17.45;71.29
4705;BME280;2366;51.332;6.610;2023-08-07T01:55:12;101060.78;;;17.42;71.49
4705;BME280;2366;51.332;6.610;2023-08-07T01:57:38;101046.91;;;17.37;71.72
4705;BME280;2366;51.332;6.610;2023-08-07T02:00:04;101054.44;;;17.43;72.02
4705;BME280;2366;51.332;6.610;2023-08-07T02:02:29;101068.84;;;17.42;70.96
4705;BME280;2366;51.332;6.610;2023-08-07T02:04:55;101062.16;;;17.36;72.07
4705;BME280;2366;51.332;6.610;2023-08-07T02:07:20;101071.19;;;17.35;72.36
4705;BME280;2366;51.332;6.610;2023-08-07T02:09:45;101071.19;;;17.35;72.05
4705;BME280;2366;51.332;6.610;2023-08-07T02:12:11;101076.28;;;17.38;72.18
4705;BME280;2366;51.332;6.610;2023-08-07T02:14:36;101093.47;;;17.36;72.23
4705;BME280;2366;51.332;6.610;2023-08-07T02:17:01;101081.03;;;17.35;72.60
4705;BME280;2366;51.332;6.610;2023-08-07T02:19:27;101075.44;;;17.38;72.51
4705;BME280;2366;51.332;6.610;2023-08-07T02:21:52;101076.28;;;17.38;72.66
4705;BME280;2366;51.332;6.610;2023-08-07T02:24:17;101081.28;;;17.32;72.39
4705;BME280;2366;51.332;6.610;2023-08-07T02:26:44;101076.53;;;17.35;72.64
4705;BME280;2366;51.332;6.610;2023-08-07T02:29:10;101079.66;;;17.40;72.48
4705;BME280;2366;51.332;6.610;2023-08-07T02:31:35;101084.91;;;17.42;72.46
4705;BME280;2366;51.332;6.610;2023-08-07T02:34:00;101086.16;;;17.38;72.64
4705;BME280;2366;51.332;6.610;2023-08-07T02:36:26;101092.63;;;17.35;72.17
4705;BME280;2366;51.332;6.610;2023-08-07T02:38:51;101086.19;;;17.27;72.21
4705;BME280;2366;51.332;6.610;2023-08-07T02:41:16;101099.31;;;17.30;73.08
4705;BME280;2366;51.332;6.610;2023-08-07T02:43:42;101090.31;;;17.31;72.61
4705;BME280;2366;51.332;6.610;2023-08-07T02:46:08;101096.97;;;17.36;72.61
4705;BME280;2366;51.332;6.610;2023-08-07T02:48:33;101096.03;;;17.37;72.52
4705;BME280;2366;51.332;6.610;2023-08-07T02:50:59;101095.16;;;17.37;72.52
4705;BME280;2366;51.332;6.610;2023-08-07T02:53:24;101093.34;;;17.37;72.56
4705;BME280;2366;51.332;6.610;2023-08-07T02:55:49;101096.34;;;17.44;72.60
4705;BME280;2366;51.332;6.610;2023-08-07T02:58:15;101100.47;;;17.48;72.45
4705;BME280;2366;51.332;6.610;2023-08-07T03:00:40;101103.41;;;17.45;72.09
4705;BME280;2366;51.332;6.610;2023-08-07T03:03:05;101101.94;;;17.41;72.33
4705;BME280;2366;51.332;6.610;2023-08-07T03:05:31;101100.50;;;17.37;72.01
4705;BME280;2366;51.332;6.610;2023-08-07T03:07:56;101100.38;;;17.38;72.48
4705;BME280;2366;51.332;6.610;2023-08-07T03:10:22;101107.47;;;17.39;72.27
4705;BME280;2366;51.332;6.610;2023-08-07T03:12:47;101103.66;;;17.42;72.03
4705;BME280;2366;51.332;6.610;2023-08-07T03:15:12;101101.28;;;17.28;71.86
4705;BME280;2366;51.332;6.610;2023-08-07T03:17:38;101101.63;;;17.34;72.39
4705;BME280;2366;51.332;6.610;2023-08-07T03:20:04;101110.25;;;17.38;72.13
4705;BME280;2366;51.332;6.610;2023-08-07T03:22:29;101102.00;;;17.30;72.10
4705;BME280;2366;51.332;6.610;2023-08-07T03:24:55;101095.41;;;17.34;72.10
4705;BME280;2366;51.332;6.610;2023-08-07T03:27:20;101098.38;;;17.31;72.05
4705;BME280;2366;51.332;6.610;2023-08-07T03:29:46;101095.16;;;17.37;72.19
4705;BME280;2366;51.332;6.610;2023-08-07T03:32:11;101104.06;;;17.37;72.04
4705;BME280;2366;51.332;6.610;2023-08-07T03:34:37;101097.97;;;17.35;72.11
4705;BME280;2366;51.332;6.610;2023-08-07T03:37:02;101099.78;;;17.35;72.03
4705;BME280;2366;51.332;6.610;2023-08-07T03:39:28;101106.84;;;17.36;72.20
4705;BME280;2366;51.332;6.610;2023-08-07T03:41:53;101102.72;;;17.32;72.22
4705;BME280;2366;51.332;6.610;2023-08-07T03:44:19;101109.94;;;17.31;72.05
4705;BME280;2366;51.332;6.610;2023-08-07T03:46:44;101099.94;;;17.33;72.01
4705;BME280;2366;51.332;6.610;2023-08-07T03:49:09;101107.25;;;17.31;71.88
4705;BME280;2366;51.332;6.610;2023-08-07T03:51:35;101113.44;;;17.32;71.82
4705;BME280;2366;51.332;6.610;2023-08-07T03:54:00;101106.31;;;17.21;72.01
4705;BME280;2366;51.332;6.610;2023-08-07T03:56:25;101107.75;;;17.25;71.97
4705;BME280;2366;51.332;6.610;2023-08-07T03:58:51;101109.44;;;17.26;72.10
4705;BME280;2366;51.332;6.610;2023-08-07T04:01:16;101107.75;;;17.25;72.14
4705;BME280;2366;51.332;6.610;2023-08-07T04:03:42;101109.72;;;17.23;72.08
4705;BME280;2366;51.332;6.610;2023-08-07T04:06:07;101118.75;;;17.22;72.09
4705;BME280;2366;51.332;6.610;2023-08-07T04:08:33;101115.16;;;17.33;72.24
4705;BME280;2366;51.332;6.610;2023-08-07T04:10:59;101112.94;;;17.38;71.73
4705;BME280;2366;51.332;6.610;2023-08-07T04:13:26;101113.41;;;17.43;71.82
4705;BME280;2366;51.332;6.610;2023-08-07T04:15:51;101109.53;;;17.36;71.47
4705;BME280;2366;51.332;6.610;2023-08-07T04:18:16;101105.88;;;17.37;71.06
4705;BME280;2366;51.332;6.610;2023-08-07T04:20:42;101101.88;;;17.31;71.79
4705;BME280;2366;51.332;6.610;2023-08-07T04:23:07;101104.44;;;17.33;71.51
4705;BME280;2366;51.332;6.610;2023-08-07T04:25:34;101105.13;;;17.35;71.38
4705;BME280;2366;51.332;6.610;2023-08-07T04:27:59;101106.63;;;17.28;71.55
4705;BME280;2366;51.332;6.610;2023-08-07T04:30:24;101103.19;;;17.37;71.53
4705;BME280;2366;51.332;6.610;2023-08-07T04:32:50;101111.22;;;17.37;71.33
4705;BME280;2366;51.332;6.610;2023-08-07T04:35:15;101117.19;;;17.40;71.40
4705;BME280;2366;51.332;6.610;2023-08-07T04:37:40;101117.06;;;17.42;71.05
4705;BME280;2366;51.332;6.610;2023-08-07T04:40:06;101118.63;;;17.44;71.19
4705;BME280;2366;51.332;6.610;2023-08-07T04:42:33;101126.22;;;17.39;70.70
4705;BME280;2366;51.332;6.610;2023-08-07T04:44:59;101124.00;;;17.44;70.62
4705;BME280;2366;51.332;6.610;2023-08-07T04:47:24;101123.38;;;17.41;70.52
4705;BME280;2366;51.332;6.610;2023-08-07T04:49:49;101109.75;;;17.44;70.86
4705;BME280;2366;51.332;6.610;2023-08-07T04:52:15;101112.66;;;17.41;70.57
4705;BME280;2366;51.332;6.610;2023-08-07T04:54:40;101107.19;;;17.42;70.94
4705;BME280;2366;51.332;6.610;2023-08-07T04:57:05;101116.06;;;17.43;70.47
4705;BME280;2366;51.332;6.610;2023-08-07T04:59:31;101117.78;;;17.44;70.78
4705;BME280;2366;51.332;6.610;2023-08-07T05:01:57;101126.78;;;17.43;70.84
4705;BME280;2366;51.332;6.610;2023-08-07T05:04:22;101119.25;;;17.37;70.69
4705;BME280;2366;51.332;6.610;2023-08-07T05:06:47;101127.31;;;17.37;70.92
4705;BME280;2366;51.332;6.610;2023-08-07T05:09:14;101117.13;;;17.31;70.94
4705;BME280;2366;51.332;6.610;2023-08-07T05:11:39;101116.00;;;17.33;71.24
4705;BME280;2366;51.332;6.610;2023-08-07T05:14:04;101122.94;;;17.36;71.10
4705;BME280;2366;51.332;6.610;2023-08-07T05:16:30;101131.91;;;17.46;70.85
4705;BME280;2366;51.332;6.610;2023-08-07T05:18:55;101128.50;;;17.44;71.03
4705;BME280;2366;51.332;6.610;2023-08-07T05:21:20;101131.41;;;17.52;71.03
4705;BME280;2366;51.332;6.610;2023-08-07T05:23:46;101131.03;;;17.45;70.82
4705;BME280;2366;51.332;6.610;2023-08-07T05:26:12;101137.41;;;17.44;71.13
4705;BME280;2366;51.332;6.610;2023-08-07T05:28:38;101132.38;;;17.51;71.15
4705;BME280;2366;51.332;6.610;2023-08-07T05:31:03;101124.84;;;17.45;71.13
4705;BME280;2366;51.332;6.610;2023-08-07T05:33:28;101124.59;;;17.48;71.20
4705;BME280;2366;51.332;6.610;2023-08-07T05:35:54;101129.81;;;17.50;71.22
4705;BME280;2366;51.332;6.610;2023-08-07T05:38:20;101134.78;;;17.54;71.37
4705;BME280;2366;51.332;6.610;2023-08-07T05:40:46;101130.81;;;17.49;71.25
4705;BME280;2366;51.332;6.610;2023-08-07T05:43:11;101140.91;;;17.45;71.32
4705;BME280;2366;51.332;6.610;2023-08-07T05:45:37;101140.91;;;17.45;71.51
4705;BME280;2366;51.332;6.610;2023-08-07T05:48:03;101144.94;;;17.51;71.12
4705;BME280;2366;51.332;6.610;2023-08-07T05:50:28;101137.84;;;17.50;71.76
4705;BME280;2366;51.332;6.610;2023-08-07T05:52:54;101149.16;;;17.53;71.58
4705;BME280;2366;51.332;6.610;2023-08-07T05:55:19;101153.75;;;17.62;71.63
4705;BME280;2366;51.332;6.610;2023-08-07T05:57:45;101156.50;;;17.51;71.50
4705;BME280;2366;51.332;6.610;2023-08-07T06:00:10;101154.53;;;17.53;71.87
4705;BME280;2366;51.332;6.610;2023-08-07T06:02:42;101156.22;;;17.54;71.68
4705;BME280;2366;51.332;6.610;2023-08-07T06:05:07;101157.59;;;17.49;71.89
4705;BME280;2366;51.332;6.610;2023-08-07T06:07:34;101168.94;;;17.52;71.80
4705;BME280;2366;51.332;6.610;2023-08-07T06:09:59;101152.56;;;17.55;71.93
4705;BME280;2366;51.332;6.610;2023-08-07T06:12:25;101154.53;;;17.53;72.06
4705;BME280;2366;51.332;6.610;2023-08-07T06:14:50;101157.47;;;17.50;72.14
4705;BME280;2366;51.332;6.610;2023-08-07T06:17:16;101171.34;;;17.55;72.27
4705;BME280;2366;51.332;6.610;2023-08-07T06:19:41;101177.94;;;17.51;72.42
4705;BME280;2366;51.332;6.610;2023-08-07T06:22:06;101174.03;;;17.55;71.82
4705;BME280;2366;51.332;6.610;2023-08-07T06:24:32;101184.88;;;17.54;72.24
4705;BME280;2366;51.332;6.610;2023-08-07T06:26:58;101192.06;;;17.53;72.49
4705;BME280;2366;51.332;6.610;2023-08-07T06:29:23;101183.63;;;17.58;72.76
4705;BME280;2366;51.332;6.610;2023-08-07T06:31:48;101184.75;;;17.55;72.63
4705;BME280;2366;51.332;6.610;2023-08-07T06:34:14;101172.84;;;17.48;72.66
4705;BME280;2366;51.332;6.610;2023-08-07T06:36:39;101177.94;;;17.51;72.74
4705;BME280;2366;51.332;6.610;2023-08-07T06:39:05;101178.81;;;17.40;71.32
4705;BME280;2366;51.332;6.610;2023-08-07T06:41:30;101184.06;;;17.42;72.73
4705;BME280;2366;51.332;6.610;2023-08-07T06:43:56;101201.38;;;17.38;72.80
4705;BME280;2366;51.332;6.610;2023-08-07T06:46:21;101200.16;;;17.42;72.95
4705;BME280;2366;51.332;6.610;2023-08-07T06:48:51;101205.25;;;17.45;72.86
4705;BME280;2366;51.332;6.610;2023-08-07T06:51:17;101204.47;;;17.54;73.13
4705;BME280;2366;51.332;6.610;2023-08-07T06:53:42;101209.16;;;17.41;70.81
4705;BME280;2366;51.332;6.610;2023-08-07T06:56:07;101217.06;;;17.42;73.35
4705;BME280;2366;51.332;6.610;2023-08-07T06:58:33;101211.81;;;17.52;72.76
4705;BME280;2366;51.332;6.610;2023-08-07T07:00:58;101214.34;;;17.54;73.08
4705;BME280;2366;51.332;6.610;2023-08-07T07:03:24;101211.28;;;17.58;72.98
4705;BME280;2366;51.332;6.610;2023-08-07T07:05:49;101214.97;;;17.57;72.90
4705;BME280;2366;51.332;6.610;2023-08-07T07:08:15;101213.38;;;17.55;72.22
4705;BME280;2366;51.332;6.610;2023-08-07T07:10:41;101219.13;;;17.50;73.10
4705;BME280;2366;51.332;6.610;2023-08-07T07:13:06;101223.50;;;17.51;73.05
4705;BME280;2366;51.332;6.610;2023-08-07T07:15:33;101221.16;;;17.58;73.10
4705;BME280;2366;51.332;6.610;2023-08-07T07:17:58;101236.63;;;17.54;72.85
4705;BME280;2366;51.332;6.610;2023-08-07T07:20:24;101238.25;;;17.45;72.86
4705;BME280;2366;51.332;6.610;2023-08-07T07:22:52;101242.38;;;17.50;73.34
4705;BME280;2366;51.332;6.610;2023-08-07T07:25:17;101242.72;;;17.56;73.16
4705;BME280;2366;51.332;6.610;2023-08-07T07:27:42;101244.66;;;17.65;73.14
4705;BME280;2366;51.332;6.610;2023-08-07T07:30:09;101254.41;;;17.66;73.10
4705;BME280;2366;51.332;6.610;2023-08-07T07:32:34;101270.59;;;17.65;73.38
4705;BME280;2366;51.332;6.610;2023-08-07T07:34:59;101263.38;;;17.77;72.95
4705;BME280;2366;51.332;6.610;2023-08-07T07:37:25;101264.88;;;17.70;72.86
4705;BME280;2366;51.332;6.610;2023-08-07T07:39:50;101273.13;;;17.78;73.05
4705;BME280;2366;51.332;6.610;2023-08-07T07:42:15;101273.66;;;17.83;73.07
4705;BME280;2366;51.332;6.610;2023-08-07T07:44:41;101276.50;;;17.91;73.07
4705;BME280;2366;51.332;6.610;2023-08-07T07:47:07;101288.13;;;17.92;72.59
4705;BME280;2366;51.332;6.610;2023-08-07T07:49:33;101296.00;;;17.93;72.51
4705;BME280;2366;51.332;6.610;2023-08-07T07:51:59;101298.91;;;18.01;72.39
4705;BME280;2366;51.332;6.610;2023-08-07T07:54:24;101300.41;;;17.94;72.30
4705;BME280;2366;51.332;6.610;2023-08-07T07:56:49;101310.38;;;18.03;72.54
4705;BME280;2366;51.332;6.610;2023-08-07T07:59:15;101323.16;;;18.00;72.47
4705;BME280;2366;51.332;6.610;2023-08-07T08:01:41;101320.13;;;18.04;72.02
4705;BME280;2366;51.332;6.610;2023-08-07T08:04:06;101316.16;;;18.20;72.09
4705;BME280;2366;51.332;6.610;2023-08-07T08:06:32;101330.75;;;18.27;72.14
4705;BME280;2366;51.332;6.610;2023-08-07T08:08:57;101326.41;;;18.15;71.81
4705;BME280;2366;51.332;6.610;2023-08-07T08:11:23;101331.88;;;18.24;71.71
4705;BME280;2366;51.332;6.610;2023-08-07T08:13:48;101340.50;;;18.28;71.58
4705;BME280;2366;51.332;6.610;2023-08-07T08:16:14;101336.06;;;18.17;69.73
4705;BME280;2366;51.332;6.610;2023-08-07T08:18:40;101334.16;;;18.29;71.79
4705;BME280;2366;51.332;6.610;2023-08-07T08:21:05;101332.59;;;18.47;71.78
4705;BME280;2366;51.332;6.610;2023-08-07T08:23:32;101337.38;;;18.65;70.85
4705;BME280;2366;51.332;6.610;2023-08-07T08:25:57;101346.50;;;18.95;71.28
4705;BME280;2366;51.332;6.610;2023-08-07T08:28:22;101341.97;;;18.95;70.74
4705;BME280;2366;51.332;6.610;2023-08-07T08:30:48;101340.59;;;19.01;70.16
4705;BME280;2366;51.332;6.610;2023-08-07T08:33:13;101344.38;;;19.19;70.04
4705;BME280;2366;51.332;6.610;2023-08-07T08:35:39;101337.03;;;19.31;69.43
4705;BME280;2366;51.332;6.610;2023-08-07T08:38:05;101344.75;;;19.55;67.40
4705;BME280;2366;51.332;6.610;2023-08-07T08:40:31;101346.25;;;19.79;67.92
4705;BME280;2366;51.332;6.610;2023-08-07T08:43:01;101355.50;;;20.25;66.86
4705;BME280;2366;51.332;6.610;2023-08-07T08:45:27;101352.81;;;20.44;65.74
4705;BME280;2366;51.332;6.610;2023-08-07T08:47:55;101356.78;;;20.69;65.38
4705;BME280;2366;51.332;6.610;2023-08-07T08:50:26;101358.41;;;21.00;64.73
4705;BME280;2366;51.332;6.610;2023-08-07T08:52:53;101355.06;;;21.63;63.86
4705;BME280;2366;51.332;6.610;2023-08-07T08:55:20;101374.78;;;22.27;62.19
4705;BME280;2366;51.332;6.610;2023-08-07T08:57:46;101361.63;;;22.68;61.15
4705;BME280;2366;51.332;6.610;2023-08-07T09:00:13;101367.63;;;23.32;59.62
4705;BME280;2366;51.332;6.610;2023-08-07T09:02:51;101374.78;;;23.84;57.42
4705;BME280;2366;51.332;6.610;2023-08-07T09:05:18;101374.19;;;23.72;56.65
4705;BME280;2366;51.332;6.610;2023-08-07T09:07:48;101371.97;;;22.72;56.21
4705;BME280;2366;51.332;6.610;2023-08-07T09:10:14;101382.75;;;21.83;58.20
4705;BME280;2366;51.332;6.610;2023-08-07T09:12:42;101387.06;;;21.38;59.38
4705;BME280;2366;51.332;6.610;2023-08-07T09:15:11;101381.91;;;21.17;60.37
4705;BME280;2366;51.332;6.610;2023-08-07T09:17:40;101381.34;;;21.13;60.88
4705;BME280;2366;51.332;6.610;2023-08-07T09:20:07;101382.16;;;20.77;60.84
4705;BME280;2366;51.332;6.610;2023-08-07T09:22:37;101384.16;;;20.65;61.34
4705;BME280;2366;51.332;6.610;2023-08-07T09:25:03;101393.34;;;20.72;61.49
4705;BME280;2366;51.332;6.610;2023-08-07T09:27:30;101390.34;;;20.75;61.57
4705;BME280;2366;51.332;6.610;2023-08-07T09:29:55;101394.25;;;21.10;60.52
4705;BME280;2366;51.332;6.610;2023-08-07T09:32:22;101392.50;;;21.66;59.93
4705;BME280;2366;51.332;6.610;2023-08-07T09:34:49;101403.03;;;21.59;58.01
4705;BME280;2366;51.332;6.610;2023-08-07T09:37:15;101407.97;;;21.26;58.97
4705;BME280;2366;51.332;6.610;2023-08-07T09:39:41;101409.19;;;21.04;59.26
4705;BME280;2366;51.332;6.610;2023-08-07T09:42:13;101412.13;;;21.11;60.37
4705;BME280;2366;51.332;6.610;2023-08-07T09:44:39;101400.78;;;21.17;60.23
4705;BME280;2366;51.332;6.610;2023-08-07T09:47:15;101402.78;;;21.15;60.63
4705;BME280;2366;51.332;6.610;2023-08-07T09:49:41;101401.81;;;21.06;59.20
4705;BME280;2366;51.332;6.610;2023-08-07T09:52:08;101407.97;;;21.26;60.59
4705;BME280;2366;51.332;6.610;2023-08-07T09:54:34;101405.63;;;21.51;59.68
4705;BME280;2366;51.332;6.610;2023-08-07T09:57:03;101409.22;;;22.43;58.57
4705;BME280;2366;51.332;6.610;2023-08-07T09:59:29;101399.19;;;22.79;55.60
4705;BME280;2366;51.332;6.610;2023-08-07T10:01:55;101399.09;;;23.07;54.09
4705;BME280;2366;51.332;6.610;2023-08-07T10:04:23;101390.34;;;23.47;53.11
4705;BME280;2366;51.332;6.610;2023-08-07T10:06:50;101400.88;;;24.09;52.75
4705;BME280;2366;51.332;6.610;2023-08-07T10:09:16;101402.50;;;23.77;52.10
4705;BME280;2366;51.332;6.610;2023-08-07T10:11:42;101396.09;;;23.87;52.58
4705;BME280;2366;51.332;6.610;2023-08-07T10:14:12;101410.13;;;23.82;52.89
4705;BME280;2366;51.332;6.610;2023-08-07T10:16:40;101403.06;;;23.97;50.84
4705;BME280;2366;51.332;6.610;2023-08-07T10:19:07;101396.66;;;23.56;50.89
4705;BME280;2366;51.332;6.610;2023-08-07T10:21:35;101407.03;;;23.34;51.00
4705;BME280;2366;51.332;6.610;2023-08-07T10:24:03;101407.16;;;23.67;50.67
4705;BME280;2366;51.332;6.610;2023-08-07T10:26:29;101398.00;;;23.94;49.63
4705;BME280;2366;51.332;6.610;2023-08-07T10:28:55;101383.91;;;23.48;47.43
4705;BME280;2366;51.332;6.610;2023-08-07T10:31:22;101392.81;;;23.67;49.45
4705;BME280;2366;51.332;6.610;2023-08-07T10:33:48;101392.31;;;23.71;48.19
4705;BME280;2366;51.332;6.610;2023-08-07T10:36:16;101392.91;;;23.57;47.78
4705;BME280;2366;51.332;6.610;2023-08-07T10:38:42;101395.56;;;23.83;49.11
4705;BME280;2366;51.332;6.610;2023-08-07T10:41:13;101391.00;;;23.75;48.89
4705;BME280;2366;51.332;6.610;2023-08-07T10:43:43;101400.56;;;23.70;45.46
4705;BME280;2366;51.332;6.610;2023-08-07T10:46:20;101407.16;;;23.67;44.85
4705;BME280;2366;51.332;6.610;2023-08-07T10:48:54;101399.88;;;23.60;43.93
4705;BME280;2366;51.332;6.610;2023-08-07T10:51:28;101409.50;;;23.96;44.46
4705;BME280;2366;51.332;6.610;2023-08-07T10:53:55;101404.66;;;24.25;43.48
4705;BME280;2366;51.332;6.610;2023-08-07T10:56:33;101406.97;;;24.11;43.33
4705;BME280;2366;51.332;6.610;2023-08-07T10:59:10;101415.44;;;24.08;43.78
4705;BME280;2366;51.332;6.610;2023-08-07T11:04:09;101402.16;;;23.81;43.00
4705;BME280;2366;51.332;6.610;2023-08-07T11:06:37;101407.66;;;23.63;42.15
4705;BME280;2366;51.332;6.610;2023-08-07T11:09:05;101407.59;;;23.81;41.98
4705;BME280;2366;51.332;6.610;2023-08-07T11:11:41;101403.97;;;24.14;40.91
4705;BME280;2366;51.332;6.610;2023-08-07T11:14:08;101415.19;;;24.44;40.75
4705;BME280;2366;51.332;6.610;2023-08-07T11:16:34;101422.28;;;24.45;39.35
4705;BME280;2366;51.332;6.610;2023-08-07T11:19:00;101421.31;;;24.63;41.17
4705;BME280;2366;51.332;6.610;2023-08-07T11:21:26;101413.97;;;24.96;40.21
4705;BME280;2366;51.332;6.610;2023-08-07T11:23:51;101415.69;;;24.97;39.22
4705;BME280;2366;51.332;6.610;2023-08-07T11:26:17;101420.94;;;24.74;40.40
4705;BME280;2366;51.332;6.610;2023-08-07T11:28:42;101427.69;;;24.37;40.71
4705;BME280;2366;51.332;6.610;2023-08-07T11:31:08;101430.97;;;23.98;40.95
4705;BME280;2366;51.332;6.610;2023-08-07T11:33:35;101431.94;;;23.81;40.79
4705;BME280;2366;51.332;6.610;2023-08-07T11:36:01;101429.25;;;23.54;39.72
4705;BME280;2366;51.332;6.610;2023-08-07T11:38:30;101427.63;;;23.70;39.45
4705;BME280;2366;51.332;6.610;2023-08-07T11:41:03;101430.94;;;23.90;39.02
4705;BME280;2366;51.332;6.610;2023-08-07T11:43:30;101427.00;;;24.18;39.51
4705;BME280;2366;51.332;6.610;2023-08-07T11:46:01;101448.34;;;24.38;39.29
4705;BME280;2366;51.332;6.610;2023-08-07T11:48:28;101440.19;;;24.22;39.17
4705;BME280;2366;51.332;6.610;2023-08-07T11:50:56;101445.44;;;24.23;38.30
4705;BME280;2366;51.332;6.610;2023-08-07T11:53:23;101445.75;;;24.20;39.13
4705;BME280;2366;51.332;6.610;2023-08-07T11:55:54;101447.94;;;24.08;39.26
4705;BME280;2366;51.332;6.610;2023-08-07T11:58:20;101444.84;;;23.87;39.76
4705;BME280;2366;51.332;6.610;2023-08-07T12:00:46;101439.34;;;23.70;39.68
4705;BME280;2366;51.332;6.610;2023-08-07T12:03:28;101441.50;;;24.01;39.03
4705;BME280;2366;51.332;6.610;2023-08-07T12:05:56;101435.13;;;24.27;39.38
4705;BME280;2366;51.332;6.610;2023-08-07T12:08:22;101428.38;;;24.39;39.18
4705;BME280;2366;51.332;6.610;2023-08-07T12:10:53;101435.50;;;24.40;39.32
4705;BME280;2366;51.332;6.610;2023-08-07T12:13:23;101426.00;;;24.36;38.45
4705;BME280;2366;51.332;6.610;2023-08-07T12:15:51;101431.72;;;24.16;37.30
4705;BME280;2366;51.332;6.610;2023-08-07T12:18:18;101434.47;;;24.41;38.76
4705;BME280;2366;51.332;6.610;2023-08-07T12:20:43;101433.34;;;24.60;37.27
4705;BME280;2366;51.332;6.610;2023-08-07T12:23:14;101440.97;;;24.81;38.35
4705;BME280;2366;51.332;6.610;2023-08-07T12:25:41;101440.75;;;24.33;37.62
4705;BME280;2366;51.332;6.610;2023-08-07T12:28:07;101430.50;;;24.11;37.82
4705;BME280;2366;51.332;6.610;2023-08-07T12:30:34;101435.50;;;23.81;37.93
4705;BME280;2366;51.332;6.610;2023-08-07T12:33:00;101437.75;;;23.94;37.80
4705;BME280;2366;51.332;6.610;2023-08-07T12:35:25;101434.94;;;24.20;38.09
4705;BME280;2366;51.332;6.610;2023-08-07T12:37:50;101441.44;;;24.52;37.86
4705;BME280;2366;51.332;6.610;2023-08-07T12:40:16;101437.38;;;24.89;37.83
4705;BME280;2366;51.332;6.610;2023-08-07T12:42:45;101439.56;;;25.10;37.17
4705;BME280;2366;51.332;6.610;2023-08-07T12:45:11;101435.19;;;24.92;35.99
4705;BME280;2366;51.332;6.610;2023-08-07T12:47:36;101437.22;;;24.98;36.85
4705;BME280;2366;51.332;6.610;2023-08-07T12:50:02;101447.38;;;24.96;35.99
4705;BME280;2366;51.332;6.610;2023-08-07T12:52:28;101445.16;;;25.08;36.51
4705;BME280;2366;51.332;6.610;2023-08-07T12:54:54;101445.84;;;25.02;36.50
4705;BME280;2366;51.332;6.610;2023-08-07T12:57:19;101445.19;;;24.51;35.88
4705;BME280;2366;51.332;6.610;2023-08-07T12:59:45;101438.50;;;24.21;36.60
4705;BME280;2366;51.332;6.610;2023-08-07T13:02:10;101440.84;;;24.07;36.27
4705;BME280;2366;51.332;6.610;2023-08-07T13:04:36;101454.19;;;24.09;37.61
4705;BME280;2366;51.332;6.610;2023-08-07T13:07:01;101444.97;;;24.36;37.28
4705;BME280;2366;51.332;6.610;2023-08-07T13:09:26;101442.47;;;24.67;37.12
4705;BME280;2366;51.332;6.610;2023-08-07T13:11:52;101446.03;;;24.68;35.95
4705;BME280;2366;51.332;6.610;2023-08-07T13:14:17;101442.06;;;24.37;36.40